Time;durP1;ratioP1;P1;durP2;ratioP2;P2;SDS_P1;SDS_P2;PMS_P1;PMS_P2;Temp;Humidity;BMP_temperature;BMP_pressure;BME280_temperature;BME280_humidity;BME280_pressure;Samples;Min_cycle;Max_cycle;Signal;HPM_P1;HPM_P2
2023/01/31 00:01:05;;;;;;;19.40;13.13;;;;;;;;;;5071587;28;20251;-81
2023/01/31 00:03:32;;;;;;;20.10;14.40;;;;;;;;;;5053889;28;20226;-82
2023/01/31 00:06:09;;;;;;;16.63;13.00;;;;;;;;;;5064149;28;20197;-82
2023/01/31 00:08:37;;;;;;;15.27;12.23;;;;;;;;;;5052490;28;20684;-82
2023/01/31 00:11:04;;;;;;;14.23;11.00;;;;;;;;;;5065492;28;20232;-82
2023/01/31 00:13:31;;;;;;;16.23;11.40;;;;;;;;;;5065369;28;20255;-82
2023/01/31 00:15:58;;;;;;;19.43;12.93;;;;;;;;;;5065687;28;20201;-82
2023/01/31 00:18:26;;;;;;;19.70;11.53;;;;;;;;;;5058501;28;20592;-82
2023/01/31 00:20:53;;;;;;;17.27;11.97;;;;;;;;;;5058038;28;20206;-82
2023/01/31 00:23:20;;;;;;;20.30;12.10;;;;;;;;;;5058062;28;20209;-82
2023/01/31 00:25:48;;;;;;;25.63;14.90;;;;;;;;;;5057514;28;20202;-81
2023/01/31 00:28:15;;;;;;;24.67;14.73;;;;;;;;;;5060062;28;20691;-82
2023/01/31 00:30:42;;;;;;;30.43;20.30;;;;;;;;;;5056482;28;20777;-82
2023/01/31 00:33:09;;;;;;;26.43;17.20;;;;;;;;;;5060255;28;20201;-81
2023/01/31 00:35:38;;;;;;;26.83;17.10;;;;;;;;;;5070848;28;20201;-82
2023/01/31 00:38:05;;;;;;;26.23;16.43;;;;;;;;;;5062842;28;20194;-82
2023/01/31 00:40:32;;;;;;;16.43;12.93;;;;;;;;;;5067864;28;20278;-82
2023/01/31 00:43:00;;;;;;;19.37;12.13;;;;;;;;;;5061257;28;20263;-82
2023/01/31 00:45:27;;;;;;;14.50;11.77;;;;;;;;;;5054502;28;20647;-81
2023/01/31 00:47:54;;;;;;;14.23;9.80;;;;;;;;;;5060156;28;20209;-82
2023/01/31 00:50:21;;;;;;;16.93;11.13;;;;;;;;;;5054732;28;20631;-82
2023/01/31 00:52:48;;;;;;;12.33;9.73;;;;;;;;;;5071568;28;20205;-82
2023/01/31 00:55:16;;;;;;;10.77;9.17;;;;;;;;;;5057687;28;20193;-82
2023/01/31 00:57:43;;;;;;;13.57;10.13;;;;;;;;;;5069758;28;20217;-82
2023/01/31 01:00:13;;;;;;;18.27;11.87;;;;;;;;;;5053809;28;20228;-82
2023/01/31 01:02:40;;;;;;;19.53;13.53;;;;;;;;;;5071340;28;20212;-83
2023/01/31 01:05:08;;;;;;;15.80;11.83;;;;;;;;;;5056473;28;20237;-82
2023/01/31 01:07:35;;;;;;;15.73;10.77;;;;;;;;;;5059003;28;20206;-83
2023/01/31 01:10:02;;;;;;;10.87;8.20;;;;;;;;;;5065834;28;20286;-81
2023/01/31 01:12:29;;;;;;;10.63;7.90;;;;;;;;;;5063036;28;20209;-82
2023/01/31 01:14:56;;;;;;;13.13;7.87;;;;;;;;;;5050847;28;20206;-82
2023/01/31 01:17:24;;;;;;;14.67;9.40;;;;;;;;;;5058824;28;20208;-81
2023/01/31 01:19:51;;;;;;;12.33;8.43;;;;;;;;;;5066236;28;20703;-82
2023/01/31 01:22:18;;;;;;;12.57;8.30;;;;;;;;;;5072297;28;20198;-82
2023/01/31 01:24:45;;;;;;;11.40;8.13;;;;;;;;;;5064224;28;20209;-82
2023/01/31 01:27:13;;;;;;;11.20;8.43;;;;;;;;;;5051229;28;20205;-82
2023/01/31 01:29:40;;;;;;;14.43;10.43;;;;;;;;;;5070253;28;20201;-82
2023/01/31 01:32:07;;;;;;;20.70;11.90;;;;;;;;;;5058008;28;20222;-82
2023/01/31 01:34:36;;;;;;;13.60;11.00;;;;;;;;;;5070566;28;20201;-82
2023/01/31 01:37:10;;;;;;;17.07;12.20;;;;;;;;;;5070872;28;20259;-82
2023/01/31 01:39:37;;;;;;;16.37;12.17;;;;;;;;;;5049609;28;20213;-83
2023/01/31 01:42:05;;;;;;;24.53;16.17;;;;;;;;;;5052577;28;20197;-82
2023/01/31 01:44:53;;;;;;;35.47;24.23;;;;;;;;;;5062076;28;20206;-82
2023/01/31 01:47:43;;;;;;;24.10;16.73;;;;;;;;;;5050859;28;20202;-82
2023/01/31 01:50:13;;;;;;;16.03;11.93;;;;;;;;;;5048997;28;20209;-83
2023/01/31 01:52:43;;;;;;;14.60;11.20;;;;;;;;;;5051129;28;20217;-82
2023/01/31 01:55:15;;;;;;;13.67;9.67;;;;;;;;;;5053542;28;20630;-82
2023/01/31 01:57:44;;;;;;;12.60;9.43;;;;;;;;;;5070868;28;20200;-82
2023/01/31 02:00:15;;;;;;;13.87;9.67;;;;;;;;;;5052794;28;20750;-83
2023/01/31 02:02:43;;;;;;;16.90;10.93;;;;;;;;;;5061799;28;20205;-82
2023/01/31 02:05:12;;;;;;;12.50;9.70;;;;;;;;;;5057659;28;20232;-83
2023/01/31 02:07:39;;;;;;;15.07;10.47;;;;;;;;;;5070703;28;20216;-82
2023/01/31 02:10:11;;;;;;;11.80;9.63;;;;;;;;;;5057231;28;20209;-82
2023/01/31 02:12:38;;;;;;;13.30;9.43;;;;;;;;;;5057608;28;20248;-85
2023/01/31 02:15:07;;;;;;;12.90;8.67;;;;;;;;;;5037653;28;20205;-82
2023/01/31 02:17:33;;;;;;;10.60;7.77;;;;;;;;;;5064076;28;20201;-82
2023/01/31 02:20:13;;;;;;;10.97;7.07;;;;;;;;;;5056632;28;20672;-83
2023/01/31 02:22:46;;;;;;;10.47;7.27;;;;;;;;;;5054761;28;20205;-83
2023/01/31 02:25:43;;;;;;;6.00;4.87;;;;;;;;;;5061437;28;20208;-83
2023/01/31 02:28:47;;;;;;;7.73;4.83;;;;;;;;;;5074721;28;20632;-83
2023/01/31 02:31:51;;;;;;;6.00;4.70;;;;;;;;;;5048283;28;20226;-82
2023/01/31 02:34:26;;;;;;;8.07;4.97;;;;;;;;;;5072050;28;20201;-81
2023/01/31 02:37:03;;;;;;;6.37;4.53;;;;;;;;;;5061690;28;20209;-82
2023/01/31 02:39:38;;;;;;;6.67;4.40;;;;;;;;;;5061251;28;20766;-82
2023/01/31 02:42:10;;;;;;;6.03;4.47;;;;;;;;;;5058856;28;20205;-82
2023/01/31 02:45:01;;;;;;;4.93;4.47;;;;;;;;;;5063701;28;20255;-82
2023/01/31 02:47:38;;;;;;;4.90;4.20;;;;;;;;;;5067644;28;20622;-82
2023/01/31 02:50:12;;;;;;;5.50;4.23;;;;;;;;;;5067071;28;20687;-83
2023/01/31 02:52:45;;;;;;;7.10;4.47;;;;;;;;;;5054468;28;20205;-82
2023/01/31 02:58:02;;;;;;;5.73;4.70;;;;;;;;;;5054264;28;20213;-83
2023/01/31 03:00:31;;;;;;;5.07;4.23;;;;;;;;;;5059932;28;20205;-83
2023/01/31 03:02:58;;;;;;;4.77;3.83;;;;;;;;;;5074174;28;20267;-83
2023/01/31 03:05:27;;;;;;;6.97;4.90;;;;;;;;;;5052461;28;20206;-83
2023/01/31 03:07:55;;;;;;;4.67;3.53;;;;;;;;;;5053199;28;20206;-82
2023/01/31 03:10:44;;;;;;;4.93;4.43;;;;;;;;;;5066163;28;20335;-82
2023/01/31 03:13:22;;;;;;;3.80;2.80;;;;;;;;;;5067024;28;20202;-82
2023/01/31 03:18:44;;;;;;;4.00;2.93;;;;;;;;;;5043030;28;20592;-83
2023/01/31 03:21:15;;;;;;;3.30;2.67;;;;;;;;;;5058834;28;20296;-82
2023/01/31 03:23:44;;;;;;;2.90;2.50;;;;;;;;;;5060933;28;20206;-82
2023/01/31 03:26:11;;;;;;;2.70;2.30;;;;;;;;;;5053609;28;20198;-82
2023/01/31 03:28:41;;;;;;;2.27;1.97;;;;;;;;;;5053588;28;20240;-82
2023/01/31 03:31:13;;;;;;;2.83;2.30;;;;;;;;;;5066475;28;20220;-82
2023/01/31 03:33:42;;;;;;;2.43;2.23;;;;;;;;;;5053193;28;20581;-82
2023/01/31 03:36:18;;;;;;;2.23;1.77;;;;;;;;;;5059136;28;20201;-85
2023/01/31 03:38:50;;;;;;;2.77;2.50;;;;;;;;;;5058091;28;20641;-83
2023/01/31 03:41:23;;;;;;;1.80;1.70;;;;;;;;;;5058451;28;20208;-82
2023/01/31 03:43:57;;;;;;;2.40;2.20;;;;;;;;;;5051346;28;20205;-83
2023/01/31 03:46:28;;;;;;;2.47;1.87;;;;;;;;;;5052634;28;20284;-83
2023/01/31 03:48:57;;;;;;;2.27;1.90;;;;;;;;;;5040559;28;20270;-85
2023/01/31 03:51:29;;;;;;;2.10;1.97;;;;;;;;;;5060368;28;20582;-84
2023/01/31 03:54:02;;;;;;;2.80;2.50;;;;;;;;;;5039559;28;20202;-82
2023/01/31 03:56:32;;;;;;;2.30;2.00;;;;;;;;;;5066024;28;20212;-82
2023/01/31 03:59:01;;;;;;;2.10;1.90;;;;;;;;;;5052853;28;20201;-82
2023/01/31 04:01:29;;;;;;;2.27;1.73;;;;;;;;;;5065440;28;20209;-82
2023/01/31 04:03:58;;;;;;;2.33;1.83;;;;;;;;;;5051773;28;20611;-83
2023/01/31 04:06:28;;;;;;;2.90;2.30;;;;;;;;;;5066055;28;20209;-82
2023/01/31 04:08:55;;;;;;;3.00;2.70;;;;;;;;;;5031231;28;20218;-82
2023/01/31 04:11:25;;;;;;;3.33;2.83;;;;;;;;;;5082614;28;20287;-82
2023/01/31 04:13:52;;;;;;;2.53;2.17;;;;;;;;;;5052252;28;20272;-81
2023/01/31 04:16:19;;;;;;;3.40;2.73;;;;;;;;;;5052039;28;20209;-83
2023/01/31 04:18:46;;;;;;;3.50;2.87;;;;;;;;;;5052088;28;20703;-83
2023/01/31 04:21:17;;;;;;;3.23;2.80;;;;;;;;;;5084120;28;20275;-82
2023/01/31 04:23:45;;;;;;;4.50;3.77;;;;;;;;;;5031290;28;20252;-81
2023/01/31 04:26:12;;;;;;;2.63;2.10;;;;;;;;;;5056462;28;20201;-86
2023/01/31 04:28:40;;;;;;;2.10;1.87;;;;;;;;;;5070694;28;20205;-85
2023/01/31 04:31:07;;;;;;;1.80;1.70;;;;;;;;;;5066339;28;20616;-84
2023/01/31 04:33:34;;;;;;;4.10;2.17;;;;;;;;;;5063373;28;20200;-85
2023/01/31 04:36:01;;;;;;;1.40;1.30;;;;;;;;;;5052731;28;20213;-84
2023/01/31 04:38:28;;;;;;;2.80;2.13;;;;;;;;;;5051790;28;20201;-84
2023/01/31 04:40:58;;;;;;;2.13;1.83;;;;;;;;;;5050609;28;20213;-86
2023/01/31 04:43:25;;;;;;;2.97;2.23;;;;;;;;;;5063283;28;20259;-84
2023/01/31 04:45:52;;;;;;;2.63;2.03;;;;;;;;;;5064576;28;20305;-85
2023/01/31 04:48:19;;;;;;;2.87;2.30;;;;;;;;;;5051553;28;20210;-85
2023/01/31 04:50:46;;;;;;;2.23;2.03;;;;;;;;;;5064755;28;20570;-90
2023/01/31 04:53:15;;;;;;;2.23;1.87;;;;;;;;;;5050273;28;20700;-85
2023/01/31 04:55:42;;;;;;;6.37;3.80;;;;;;;;;;5050044;28;20206;-87
2023/01/31 04:58:10;;;;;;;2.47;2.27;;;;;;;;;;5083894;28;20647;-87
2023/01/31 05:00:38;;;;;;;2.63;2.37;;;;;;;;;;5052382;28;20256;-86
2023/01/31 05:03:05;;;;;;;2.87;2.37;;;;;;;;;;5057882;28;20209;-87
2023/01/31 05:05:32;;;;;;;2.67;2.23;;;;;;;;;;5055930;28;20681;-87
2023/01/31 05:08:00;;;;;;;5.07;3.23;;;;;;;;;;5059448;28;20205;-87
2023/01/31 05:10:28;;;;;;;4.53;3.27;;;;;;;;;;5051604;28;20209;-88
2023/01/31 05:12:55;;;;;;;5.70;3.97;;;;;;;;;;5057255;28;20229;-87
2023/01/31 05:15:25;;;;;;;5.50;3.53;;;;;;;;;;5060214;28;20259;-84
2023/01/31 05:17:53;;;;;;;3.93;3.27;;;;;;;;;;5055490;28;20212;-88
2023/01/31 05:20:22;;;;;;;7.30;3.83;;;;;;;;;;5067485;28;20259;-88
2023/01/31 05:22:49;;;;;;;5.27;3.37;;;;;;;;;;5083286;28;20212;-87
2023/01/31 05:25:16;;;;;;;3.47;2.57;;;;;;;;;;5050203;28;20231;-88
2023/01/31 05:27:43;;;;;;;3.97;2.83;;;;;;;;;;5050571;28;20216;-87
2023/01/31 05:30:13;;;;;;;2.73;2.40;;;;;;;;;;5074806;28;20212;-87
2023/01/31 05:32:44;;;;;;;2.40;2.20;;;;;;;;;;5070081;28;20266;-87
2023/01/31 05:35:12;;;;;;;3.40;2.40;;;;;;;;;;5059934;28;20717;-86
2023/01/31 05:37:41;;;;;;;3.37;2.43;;;;;;;;;;5051627;28;20217;-86
2023/01/31 05:40:12;;;;;;;3.00;2.17;;;;;;;;;;5063827;28;20213;-87
2023/01/31 05:42:39;;;;;;;4.47;2.90;;;;;;;;;;5065212;28;20271;-86
2023/01/31 05:45:09;;;;;;;4.00;3.30;;;;;;;;;;5049395;28;20259;-87
2023/01/31 05:47:37;;;;;;;4.53;3.03;;;;;;;;;;5045448;28;20278;-86
2023/01/31 05:50:06;;;;;;;4.23;3.03;;;;;;;;;;5056186;28;20271;-85
2023/01/31 05:52:33;;;;;;;3.40;3.10;;;;;;;;;;5050143;28;20234;-86
2023/01/31 05:55:02;;;;;;;3.73;2.73;;;;;;;;;;5051177;28;20695;-85
2023/01/31 05:57:28;;;;;;;4.83;3.23;;;;;;;;;;5057506;28;20591;-86
2023/01/31 05:59:55;;;;;;;3.53;2.83;;;;;;;;;;5056562;28;20213;-85
2023/01/31 06:02:22;;;;;;;3.80;3.10;;;;;;;;;;5055266;28;20240;-86
2023/01/31 06:04:49;;;;;;;3.13;2.70;;;;;;;;;;5067932;28;20700;-86
2023/01/31 06:07:19;;;;;;;3.07;2.67;;;;;;;;;;5055210;28;20264;-85
2023/01/31 06:09:46;;;;;;;3.97;2.63;;;;;;;;;;5055168;28;20225;-84
2023/01/31 06:12:14;;;;;;;3.53;3.23;;;;;;;;;;5063306;28;20297;-85
2023/01/31 06:14:42;;;;;;;6.37;2.90;;;;;;;;;;5058921;28;20217;-86
2023/01/31 06:17:09;;;;;;;3.33;2.80;;;;;;;;;;5053377;28;20263;-85
2023/01/31 06:19:37;;;;;;;5.10;3.00;;;;;;;;;;5058198;28;20197;-85
2023/01/31 06:22:04;;;;;;;6.20;3.30;;;;;;;;;;5063075;28;20209;-85
2023/01/31 06:24:33;;;;;;;21.57;9.60;;;;;;;;;;5071629;28;20201;-85
2023/01/31 06:27:01;;;;;;;15.23;11.03;;;;;;;;;;5073901;28;20209;-85
2023/01/31 06:29:29;;;;;;;3.60;3.23;;;;;;;;;;5059491;28;20258;-86
2023/01/31 06:31:56;;;;;;;12.83;9.00;;;;;;;;;;5062894;28;20283;-85
2023/01/31 06:34:23;;;;;;;8.03;5.67;;;;;;;;;;5066541;28;20263;-85
2023/01/31 06:36:50;;;;;;;18.57;11.27;;;;;;;;;;5054418;28;20205;-86
2023/01/31 06:39:17;;;;;;;9.33;8.03;;;;;;;;;;5067891;28;20202;-84
2023/01/31 06:41:45;;;;;;;10.60;6.17;;;;;;;;;;5053100;28;20259;-84
2023/01/31 06:44:12;;;;;;;3.83;3.27;;;;;;;;;;5060004;28;20198;-84
2023/01/31 06:46:39;;;;;;;5.00;3.40;;;;;;;;;;5074286;28;20600;-84
2023/01/31 06:49:06;;;;;;;5.17;3.93;;;;;;;;;;5074294;28;20201;-84
2023/01/31 06:51:33;;;;;;;9.57;5.97;;;;;;;;;;5073515;28;20719;-84
2023/01/31 06:54:00;;;;;;;4.00;3.50;;;;;;;;;;5053754;28;20743;-84
2023/01/31 06:56:27;;;;;;;6.37;3.47;;;;;;;;;;5066926;28;20215;-85
2023/01/31 06:58:56;;;;;;;4.80;3.17;;;;;;;;;;5053924;28;20693;-84
2023/01/31 07:01:23;;;;;;;4.07;3.27;;;;;;;;;;5054757;28;20209;-84
2023/01/31 07:03:50;;;;;;;6.33;4.97;;;;;;;;;;5065883;28;20291;-84
2023/01/31 07:06:19;;;;;;;3.83;3.43;;;;;;;;;;5065247;28;20339;-84
2023/01/31 07:08:46;;;;;;;4.90;3.67;;;;;;;;;;5052851;28;20225;-83
2023/01/31 07:11:13;;;;;;;6.90;4.77;;;;;;;;;;5067108;28;20264;-84
2023/01/31 07:13:40;;;;;;;5.30;3.47;;;;;;;;;;5053293;28;20712;-83
2023/01/31 07:16:09;;;;;;;7.33;5.40;;;;;;;;;;5067714;28;20212;-84
2023/01/31 07:18:36;;;;;;;3.87;2.80;;;;;;;;;;5073463;28;20237;-83
2023/01/31 07:21:03;;;;;;;4.73;3.93;;;;;;;;;;5069585;28;20214;-84
2023/01/31 07:23:30;;;;;;;4.13;3.73;;;;;;;;;;5061407;28;20275;-84
2023/01/31 07:25:57;;;;;;;2.43;2.27;;;;;;;;;;5056936;28;20209;-84
2023/01/31 07:28:24;;;;;;;4.73;3.77;;;;;;;;;;5062318;28;20205;-84
2023/01/31 07:30:52;;;;;;;4.57;3.83;;;;;;;;;;5058569;28;20285;-85
2023/01/31 07:33:21;;;;;;;5.27;4.20;;;;;;;;;;5062100;28;20237;-89
2023/01/31 07:35:47;;;;;;;5.00;3.77;;;;;;;;;;5051946;28;20209;-86
2023/01/31 07:38:14;;;;;;;3.40;3.10;;;;;;;;;;5052404;28;20600;-85
2023/01/31 07:40:41;;;;;;;4.13;3.50;;;;;;;;;;5069928;28;20741;-85
2023/01/31 07:43:08;;;;;;;5.50;3.60;;;;;;;;;;5045150;28;20206;-85
2023/01/31 07:45:35;;;;;;;6.67;4.63;;;;;;;;;;5057425;28;20291;-86
2023/01/31 07:48:02;;;;;;;5.57;4.67;;;;;;;;;;5071998;28;20212;-86
2023/01/31 07:50:31;;;;;;;3.83;3.23;;;;;;;;;;5058927;28;20222;-87
2023/01/31 07:53:01;;;;;;;3.80;3.00;;;;;;;;;;5040206;28;20292;-86
2023/01/31 07:55:28;;;;;;;4.47;3.50;;;;;;;;;;5071070;28;20267;-87
2023/01/31 07:57:55;;;;;;;6.43;3.63;;;;;;;;;;5092982;28;20213;-86
2023/01/31 08:05:52;;;;;;;3.50;3.20;;;;;;;;;;5052872;28;20267;-86
2023/01/31 08:08:19;;;;;;;4.87;3.27;;;;;;;;;;5066277;28;20220;-87
2023/01/31 08:10:46;;;;;;;3.57;3.20;;;;;;;;;;5052940;28;20770;-85
2023/01/31 08:13:13;;;;;;;4.73;3.97;;;;;;;;;;5066072;28;20244;-86
2023/01/31 08:15:39;;;;;;;5.30;4.10;;;;;;;;;;5064336;28;20220;-86
2023/01/31 08:18:06;;;;;;;4.13;3.30;;;;;;;;;;5067907;28;20210;-86
2023/01/31 08:20:36;;;;;;;7.40;4.87;;;;;;;;;;5046580;28;20205;-85
2023/01/31 08:23:04;;;;;;;5.00;3.20;;;;;;;;;;5058021;28;20232;-86
2023/01/31 08:25:31;;;;;;;5.40;4.17;;;;;;;;;;5059532;28;20206;-86
2023/01/31 08:27:59;;;;;;;3.47;3.10;;;;;;;;;;5052377;28;20685;-85
2023/01/31 08:30:26;;;;;;;4.23;3.07;;;;;;;;;;5064663;28;20213;-85
2023/01/31 08:32:53;;;;;;;4.17;3.13;;;;;;;;;;5058844;28;20233;-85
2023/01/31 08:35:20;;;;;;;4.13;3.27;;;;;;;;;;5071640;28;20219;-85
2023/01/31 08:37:46;;;;;;;3.90;3.47;;;;;;;;;;5052595;28;20204;-85
2023/01/31 08:40:15;;;;;;;5.17;3.23;;;;;;;;;;5065196;28;20212;-85
2023/01/31 08:42:42;;;;;;;6.33;3.63;;;;;;;;;;5072135;28;20641;-84
2023/01/31 08:45:09;;;;;;;5.20;3.33;;;;;;;;;;5071858;28;20212;-85
2023/01/31 08:47:37;;;;;;;4.70;3.20;;;;;;;;;;5065136;28;20214;-84
2023/01/31 08:50:06;;;;;;;6.67;3.97;;;;;;;;;;5065985;28;20209;-85
2023/01/31 08:52:34;;;;;;;4.27;3.27;;;;;;;;;;5072068;28;20236;-85
2023/01/31 08:55:01;;;;;;;3.60;3.13;;;;;;;;;;5070734;28;20630;-86
2023/01/31 08:57:29;;;;;;;4.43;3.33;;;;;;;;;;5059860;28;20208;-85
2023/01/31 08:59:56;;;;;;;6.20;4.07;;;;;;;;;;5070610;28;20202;-85
2023/01/31 09:02:23;;;;;;;4.77;4.30;;;;;;;;;;5052096;28;20676;-85
2023/01/31 09:04:50;;;;;;;5.57;4.27;;;;;;;;;;5051570;28;20666;-86
2023/01/31 09:07:20;;;;;;;3.23;2.90;;;;;;;;;;5052428;28;20624;-86
2023/01/31 09:09:49;;;;;;;3.53;3.23;;;;;;;;;;5051484;28;20206;-86
2023/01/31 09:12:16;;;;;;;4.33;2.93;;;;;;;;;;5052153;28;20297;-85
2023/01/31 09:14:44;;;;;;;4.77;3.40;;;;;;;;;;5051855;28;20259;-86
2023/01/31 09:17:10;;;;;;;4.67;3.50;;;;;;;;;;5051628;28;20705;-86
2023/01/31 09:19:38;;;;;;;4.43;4.03;;;;;;;;;;5068096;28;20209;-86
2023/01/31 09:22:04;;;;;;;3.70;3.40;;;;;;;;;;5071389;28;20216;-86
2023/01/31 09:24:31;;;;;;;2.90;2.60;;;;;;;;;;5058033;28;20210;-85
2023/01/31 09:26:58;;;;;;;3.60;2.77;;;;;;;;;;5071862;28;20197;-85
2023/01/31 09:29:25;;;;;;;5.37;3.70;;;;;;;;;;5058184;28;20208;-86
2023/01/31 09:31:53;;;;;;;4.77;3.37;;;;;;;;;;5060774;28;20653;-90
2023/01/31 09:34:21;;;;;;;6.23;3.00;;;;;;;;;;5056224;28;20229;-86
2023/01/31 09:36:47;;;;;;;3.13;2.83;;;;;;;;;;5060101;28;20237;-86
2023/01/31 09:39:15;;;;;;;3.37;2.73;;;;;;;;;;5069983;28;20745;-86
2023/01/31 09:41:44;;;;;;;3.13;2.83;;;;;;;;;;5059886;28;20209;-86
2023/01/31 09:44:13;;;;;;;4.10;2.93;;;;;;;;;;5070088;28;20581;-86
2023/01/31 09:46:43;;;;;;;3.40;3.10;;;;;;;;;;5058884;28;20660;-86
2023/01/31 09:49:18;;;;;;;5.13;4.53;;;;;;;;;;5057196;28;20201;-86
2023/01/31 09:51:44;;;;;;;3.97;3.33;;;;;;;;;;5058235;28;20205;-86
2023/01/31 09:54:21;;;;;;;3.43;3.10;;;;;;;;;;5063562;28;20229;-87
2023/01/31 09:56:55;;;;;;;3.57;3.00;;;;;;;;;;5054392;28;20208;-87
2023/01/31 09:59:23;;;;;;;5.10;4.00;;;;;;;;;;5071458;28;20211;-87
2023/01/31 10:01:56;;;;;;;6.73;5.03;;;;;;;;;;5057878;28;20205;-86
2023/01/31 10:04:34;;;;;;;6.30;4.00;;;;;;;;;;5059302;28;20646;-86
2023/01/31 10:07:06;;;;;;;4.83;3.30;;;;;;;;;;5045518;28;20205;-85
2023/01/31 10:09:36;;;;;;;2.87;2.63;;;;;;;;;;5069867;28;20205;-85
2023/01/31 10:12:10;;;;;;;4.57;3.00;;;;;;;;;;5051482;28;20602;-86
2023/01/31 10:14:40;;;;;;;4.50;2.57;;;;;;;;;;5064816;28;20797;-86
2023/01/31 10:17:11;;;;;;;2.63;2.37;;;;;;;;;;5050750;28;20202;-86
2023/01/31 10:19:47;;;;;;;4.43;3.37;;;;;;;;;;5051021;28;20263;-86
2023/01/31 10:22:18;;;;;;;3.37;2.93;;;;;;;;;;5050772;28;20209;-85
2023/01/31 10:24:48;;;;;;;3.10;2.83;;;;;;;;;;5057929;28;20299;-86
2023/01/31 10:27:19;;;;;;;4.13;3.73;;;;;;;;;;5057316;28;20589;-86
2023/01/31 10:29:50;;;;;;;4.50;3.43;;;;;;;;;;5037955;28;20711;-86
2023/01/31 10:32:22;;;;;;;5.27;4.03;;;;;;;;;;5051605;28;20263;-86
2023/01/31 10:34:53;;;;;;;3.60;3.10;;;;;;;;;;5070995;28;20232;-85
2023/01/31 10:37:29;;;;;;;3.63;3.33;;;;;;;;;;5055163;28;20697;-85
2023/01/31 10:40:00;;;;;;;4.50;3.07;;;;;;;;;;5061116;28;20321;-85
2023/01/31 10:42:31;;;;;;;4.73;4.10;;;;;;;;;;5066259;28;20209;-85
2023/01/31 10:45:02;;;;;;;4.83;3.80;;;;;;;;;;5050504;28;20742;-85
2023/01/31 10:47:32;;;;;;;4.50;4.10;;;;;;;;;;5058689;28;20679;-85
2023/01/31 10:50:02;;;;;;;7.83;3.80;;;;;;;;;;5073951;28;20212;-85
2023/01/31 10:52:46;;;;;;;4.83;4.33;;;;;;;;;;5041799;28;20214;-85
2023/01/31 10:55:27;;;;;;;5.67;4.83;;;;;;;;;;5053975;28;20244;-86
2023/01/31 10:57:54;;;;;;;5.77;4.53;;;;;;;;;;5065162;28;20212;-85
2023/01/31 11:00:24;;;;;;;4.17;3.50;;;;;;;;;;5069736;28;20206;-86
2023/01/31 11:02:50;;;;;;;5.70;3.33;;;;;;;;;;5054117;28;20213;-85
2023/01/31 11:05:21;;;;;;;5.07;3.83;;;;;;;;;;5058579;28;20322;-85
2023/01/31 11:07:49;;;;;;;4.50;4.07;;;;;;;;;;5074162;28;20204;-85
2023/01/31 11:10:27;;;;;;;5.30;4.50;;;;;;;;;;5060731;28;20240;-85
2023/01/31 11:12:56;;;;;;;5.23;4.40;;;;;;;;;;5059203;28;20754;-85
2023/01/31 11:15:24;;;;;;;3.87;3.47;;;;;;;;;;5054009;28;20217;-85
2023/01/31 11:17:51;;;;;;;6.77;4.17;;;;;;;;;;5068823;28;20212;-86
2023/01/31 11:20:28;;;;;;;6.83;4.83;;;;;;;;;;5065615;28;20224;-85
2023/01/31 11:22:56;;;;;;;5.63;4.27;;;;;;;;;;5053821;28;20201;-85
2023/01/31 11:25:23;;;;;;;5.97;4.07;;;;;;;;;;5063994;28;20309;-85
2023/01/31 11:27:54;;;;;;;7.37;3.60;;;;;;;;;;5060527;28;20209;-85
2023/01/31 11:30:23;;;;;;;6.70;4.70;;;;;;;;;;5073562;28;20205;-85
2023/01/31 11:32:50;;;;;;;11.23;7.27;;;;;;;;;;5060451;28;20216;-86
2023/01/31 11:35:27;;;;;;;5.30;4.80;;;;;;;;;;5060847;28;20290;-85
2023/01/31 11:37:56;;;;;;;4.40;3.90;;;;;;;;;;5061490;28;20208;-86
2023/01/31 11:40:29;;;;;;;3.67;3.27;;;;;;;;;;5071858;28;20240;-85
2023/01/31 11:42:57;;;;;;;3.77;3.33;;;;;;;;;;5062486;28;20209;-84
2023/01/31 11:45:26;;;;;;;4.10;3.07;;;;;;;;;;5057099;28;20681;-85
2023/01/31 11:47:55;;;;;;;3.50;3.20;;;;;;;;;;5063061;28;20240;-85
2023/01/31 11:50:23;;;;;;;4.90;3.00;;;;;;;;;;5072801;28;20599;-84
2023/01/31 11:52:56;;;;;;;3.53;3.13;;;;;;;;;;5062604;28;20217;-85
2023/01/31 11:55:23;;;;;;;6.00;3.57;;;;;;;;;;5066546;28;20613;-85
2023/01/31 11:57:55;;;;;;;6.43;4.13;;;;;;;;;;5052169;28;20754;-85
2023/01/31 12:00:23;;;;;;;4.80;4.10;;;;;;;;;;5052717;28;20263;-85
2023/01/31 12:02:54;;;;;;;3.30;3.00;;;;;;;;;;5053014;28;20760;-85
2023/01/31 12:05:31;;;;;;;8.67;4.73;;;;;;;;;;5040274;28;20230;-86
2023/01/31 12:08:00;;;;;;;5.27;4.30;;;;;;;;;;5068554;28;20204;-87
2023/01/31 12:10:34;;;;;;;4.23;3.23;;;;;;;;;;5072913;28;20205;-85
2023/01/31 12:13:03;;;;;;;3.17;2.93;;;;;;;;;;5055764;28;20200;-85
2023/01/31 12:15:30;;;;;;;3.97;3.27;;;;;;;;;;5063627;28;20674;-85
2023/01/31 12:18:00;;;;;;;3.67;2.97;;;;;;;;;;5059557;28;20213;-85
2023/01/31 12:20:36;;;;;;;3.20;2.80;;;;;;;;;;5060826;28;20202;-84
2023/01/31 12:23:16;;;;;;;5.77;3.60;;;;;;;;;;5072289;28;20201;-86
2023/01/31 12:26:03;;;;;;;4.03;3.43;;;;;;;;;;5057513;28;20209;-85
2023/01/31 12:28:50;;;;;;;4.53;2.57;;;;;;;;;;5062237;28;20219;-85
2023/01/31 12:31:30;;;;;;;5.70;4.17;;;;;;;;;;5059145;28;20270;-85
2023/01/31 12:34:09;;;;;;;3.60;3.30;;;;;;;;;;5057202;28;20240;-85
2023/01/31 12:36:46;;;;;;;5.03;3.13;;;;;;;;;;5062416;28;20205;-85
2023/01/31 12:39:24;;;;;;;4.20;3.37;;;;;;;;;;5054358;28;20210;-85
2023/01/31 12:42:01;;;;;;;4.67;2.50;;;;;;;;;;5064967;28;20274;-85
2023/01/31 12:44:42;;;;;;;4.20;2.53;;;;;;;;;;5040260;28;20398;-85
2023/01/31 12:47:21;;;;;;;4.30;3.40;;;;;;;;;;5051785;28;20202;-85
2023/01/31 12:50:17;;;;;;;2.97;2.77;;;;;;;;;;5063294;28;20205;-86
2023/01/31 12:52:52;;;;;;;7.00;3.67;;;;;;;;;;5071972;28;20205;-85
2023/01/31 12:55:28;;;;;;;4.40;2.60;;;;;;;;;;5054768;28;20711;-85
2023/01/31 12:58:11;;;;;;;4.50;3.50;;;;;;;;;;5052284;28;20263;-85
2023/01/31 13:00:45;;;;;;;2.90;2.70;;;;;;;;;;5058845;28;20687;-85
2023/01/31 13:03:30;;;;;;;3.17;2.60;;;;;;;;;;5058398;28;20272;-85
2023/01/31 13:06:01;;;;;;;6.03;3.23;;;;;;;;;;5071590;28;20207;-85
2023/01/31 13:08:29;;;;;;;6.43;3.67;;;;;;;;;;5053309;28;20201;-85
2023/01/31 13:11:02;;;;;;;5.10;4.30;;;;;;;;;;5051331;28;20209;-85
2023/01/31 13:13:31;;;;;;;3.30;2.90;;;;;;;;;;5051687;28;20212;-85
2023/01/31 13:16:03;;;;;;;4.80;3.37;;;;;;;;;;5064990;28;20224;-85
2023/01/31 13:18:32;;;;;;;3.63;3.03;;;;;;;;;;5045751;28;20204;-85
2023/01/31 13:21:01;;;;;;;3.53;2.57;;;;;;;;;;5057221;28;20576;-86
2023/01/31 13:23:31;;;;;;;2.97;2.67;;;;;;;;;;5051359;28;20213;-85
2023/01/31 13:26:04;;;;;;;3.40;3.10;;;;;;;;;;5064700;28;20205;-85
2023/01/31 13:28:33;;;;;;;3.00;2.70;;;;;;;;;;5061565;28;20255;-90
2023/01/31 13:31:02;;;;;;;3.43;2.77;;;;;;;;;;5067715;28;20209;-85
2023/01/31 13:33:32;;;;;;;2.43;2.13;;;;;;;;;;5062366;28;20734;-84
2023/01/31 13:36:22;;;;;;;4.17;2.77;;;;;;;;;;5057585;28;20228;-85
2023/01/31 13:38:49;;;;;;;2.73;2.30;;;;;;;;;;5057579;28;20213;-85
2023/01/31 13:41:22;;;;;;;2.87;2.67;;;;;;;;;;5063190;28;20209;-85
2023/01/31 13:43:49;;;;;;;3.10;2.80;;;;;;;;;;5067428;28;20267;-85
2023/01/31 13:46:20;;;;;;;2.73;2.33;;;;;;;;;;5061710;28;20209;-85
2023/01/31 13:48:51;;;;;;;4.20;3.50;;;;;;;;;;5054581;28;20292;-84
2023/01/31 13:51:24;;;;;;;4.90;3.53;;;;;;;;;;5060385;28;20681;-85
2023/01/31 13:53:53;;;;;;;3.90;2.90;;;;;;;;;;5050640;28;20216;-86
2023/01/31 13:56:24;;;;;;;2.60;2.40;;;;;;;;;;5050952;28;20328;-84
2023/01/31 13:58:52;;;;;;;5.07;3.20;;;;;;;;;;5056867;28;20664;-85
2023/01/31 14:01:20;;;;;;;2.90;2.00;;;;;;;;;;5058070;28;20295;-85
2023/01/31 14:04:23;;;;;;;4.30;2.97;;;;;;;;;;5044309;28;20224;-85
2023/01/31 14:07:22;;;;;;;3.27;2.97;;;;;;;;;;5065830;28;20213;-84
2023/01/31 14:10:28;;;;;;;4.10;3.37;;;;;;;;;;5049680;28;20209;-85
2023/01/31 14:13:28;;;;;;;4.77;3.50;;;;;;;;;;5056158;28;20209;-85
2023/01/31 14:15:57;;;;;;;3.53;3.23;;;;;;;;;;5061809;28;20240;-84
2023/01/31 14:18:41;;;;;;;5.67;3.73;;;;;;;;;;5037806;28;20213;-85
2023/01/31 14:21:54;;;;;;;8.53;5.50;;;;;;;;;;5053581;28;20209;-85
2023/01/31 14:24:42;;;;;;;7.67;5.60;;;;;;;;;;5074675;28;20262;-85
2023/01/31 14:27:18;;;;;;;3.87;3.20;;;;;;;;;;5056271;28;20209;-84
2023/01/31 14:29:45;;;;;;;3.70;3.30;;;;;;;;;;5041581;28;20197;-84
2023/01/31 14:32:28;;;;;;;4.47;3.93;;;;;;;;;;5054434;28;20210;-85
2023/01/31 14:34:55;;;;;;;5.60;4.03;;;;;;;;;;5054626;28;20233;-84
2023/01/31 14:37:31;;;;;;;7.03;5.07;;;;;;;;;;5067865;28;20213;-85
2023/01/31 14:40:14;;;;;;;5.30;4.13;;;;;;;;;;5054629;28;20684;-85
2023/01/31 14:43:17;;;;;;;8.07;5.70;;;;;;;;;;5054753;28;20237;-85
2023/01/31 14:45:56;;;;;;;5.47;3.73;;;;;;;;;;5054117;28;20288;-85
2023/01/31 14:48:58;;;;;;;4.40;4.00;;;;;;;;;;5067935;28;20278;-86
2023/01/31 14:51:28;;;;;;;4.03;3.63;;;;;;;;;;5040868;28;20209;-85
2023/01/31 14:54:34;;;;;;;5.57;5.07;;;;;;;;;;5054426;28;20216;-85
2023/01/31 14:57:12;;;;;;;3.40;3.10;;;;;;;;;;5033370;28;20213;-85
2023/01/31 14:59:51;;;;;;;4.10;3.30;;;;;;;;;;5054005;28;20667;-85
2023/01/31 15:02:27;;;;;;;5.37;3.80;;;;;;;;;;5042528;28;20259;-85
2023/01/31 15:05:00;;;;;;;4.20;3.90;;;;;;;;;;5056655;28;20236;-85
2023/01/31 15:07:27;;;;;;;4.93;3.83;;;;;;;;;;5073690;28;20262;-85
2023/01/31 15:09:54;;;;;;;3.57;3.23;;;;;;;;;;5060766;28;20627;-85
2023/01/31 15:12:52;;;;;;;7.97;4.90;;;;;;;;;;5073433;28;20706;-86